PWSweather.com
Personal Weather Stations
Station Observations

YeovilGB

Lat: 50.949, Lon: -2.627

Elevation: 70

Station Type: Vantage Pro

http://www.yeovil-weather.me.uk/

Latest ConditionsUpdated 12:30:03 PM GMT Wednesday, May 23, 2018
Currently Today's Max Today's Min Today's Average
Temperature 69.6°F20.9°C 69.6°F20.9°C 50.4°F10.2°C 56.9°F13.8°C
Dew Point 55.1°F12.8°C 55.1°F12.8°C 47.2°F8.4°C 49.8°F9.9°C
Winds 2.3 mph N3.7 kmh N 6.9 mph NNE11.1 kmh NNE - 3.2 mph 5.1 kmh
Wind Gusts 4.6 mph7.4 kmh 11.5 mph18.5 kmh - -
Humidity 60% 90% 59% 78%
Pressure 30.21 in1023.0 mb 30.23 in1023.7 mb 30.16 in1021.3 mb -
Hour Temp Dew Point Humidity Winds Wind Gusts Pressure Precip Precip Rate Daily Precip Total
12:30 PM 69.6°F20.9°C 55.1°F12.8°C 60% 2.3 mph N3.7 kmh N 4.6 mph7.4 kmh 30.21 in1023.0 mb - 0.00 in0.0 mm 0.00 in0.0 mm
12:20 PM 69.1°F20.6°C 54.2°F12.3°C 59% 5.8 mph NNE9.3 kmh NNE 10.4 mph16.7 kmh 30.21 in1023.0 mb - 0.00 in0.0 mm 0.00 in0.0 mm
12:10 PM 68.8°F20.4°C 54.8°F12.7°C 61% 4.6 mph N7.4 kmh N 10.4 mph16.7 kmh 30.21 in1023.0 mb - 0.00 in0.0 mm 0.00 in0.0 mm
12:00 PM 68.4°F20.2°C 54.0°F12.2°C 60% 2.3 mph N3.7 kmh N 5.8 mph9.3 kmh 30.21 in1023.0 mb - 0.00 in0.0 mm 0.00 in0.0 mm
11:50 AM 68.0°F20.0°C 54.0°F12.2°C 61% 4.6 mph N7.4 kmh N 5.8 mph9.3 kmh 30.21 in1023.0 mb - 0.00 in0.0 mm 0.00 in0.0 mm
11:40 AM 68.2°F20.1°C 54.7°F12.6°C 62% 4.6 mph N7.4 kmh N 9.2 mph14.8 kmh 30.21 in1023.0 mb - 0.00 in0.0 mm 0.00 in0.0 mm
11:30 AM 67.1°F19.5°C 54.5°F12.5°C 64% 3.5 mph NE5.6 kmh NE 10.4 mph16.7 kmh 30.21 in1023.0 mb - 0.00 in0.0 mm 0.00 in0.0 mm
11:20 AM 66.8°F19.3°C 53.8°F12.1°C 63% 4.6 mph NE7.4 kmh NE 5.8 mph9.3 kmh 30.21 in1023.0 mb - 0.00 in0.0 mm 0.00 in0.0 mm
11:10 AM 66.5°F19.2°C 54.0°F12.2°C 64% 5.8 mph N9.3 kmh N 10.4 mph16.7 kmh 30.21 in1023.0 mb - 0.00 in0.0 mm 0.00 in0.0 mm
11:00 AM 66.3°F19.1°C 53.3°F11.8°C 63% 3.5 mph N5.6 kmh N 5.8 mph9.3 kmh 30.22 in1023.4 mb - 0.00 in0.0 mm 0.00 in0.0 mm
10:50 AM 65.9°F18.8°C 54.2°F12.3°C 66% 4.6 mph N7.4 kmh N 8.1 mph13.0 kmh 30.22 in1023.4 mb - 0.00 in0.0 mm 0.00 in0.0 mm
10:40 AM 64.9°F18.3°C 53.3°F11.8°C 66% 3.5 mph N5.6 kmh N 3.5 mph5.6 kmh 30.22 in1023.4 mb - 0.00 in0.0 mm 0.00 in0.0 mm
10:30 AM 64.5°F18.1°C 52.9°F11.6°C 66% 5.8 mph NE9.3 kmh NE 8.1 mph13.0 kmh 30.22 in1023.4 mb - 0.00 in0.0 mm 0.00 in0.0 mm
10:20 AM 63.5°F17.5°C 52.4°F11.3°C 67% 3.5 mph N5.6 kmh N 5.8 mph9.3 kmh 30.22 in1023.4 mb - 0.00 in0.0 mm 0.00 in0.0 mm
10:10 AM 63.5°F17.5°C 52.3°F11.3°C 67% 3.5 mph NNW5.6 kmh NNW 8.1 mph13.0 kmh 30.23 in1023.7 mb - 0.00 in0.0 mm 0.00 in0.0 mm
10:00 AM 63.0°F17.2°C 52.3°F11.3°C 68% 5.8 mph N9.3 kmh N 6.9 mph11.1 kmh 30.23 in1023.7 mb - 0.00 in0.0 mm 0.00 in0.0 mm
09:50 AM 62.8°F17.1°C 51.7°F10.9°C 67% 5.8 mph NE9.3 kmh NE 8.1 mph13.0 kmh 30.23 in1023.7 mb - 0.00 in0.0 mm 0.00 in0.0 mm
09:40 AM 62.5°F16.9°C 52.6°F11.4°C 70% 4.6 mph NNW7.4 kmh NNW 10.4 mph16.7 kmh 30.23 in1023.7 mb - 0.00 in0.0 mm 0.00 in0.0 mm
09:30 AM 62.0°F16.7°C 51.7°F10.9°C 69% 4.6 mph NNW7.4 kmh NNW 8.1 mph13.0 kmh 30.23 in1023.7 mb - 0.00 in0.0 mm 0.00 in0.0 mm
09:20 AM 61.2°F16.2°C 50.9°F10.5°C 69% 3.5 mph N5.6 kmh N 6.9 mph11.1 kmh 30.23 in1023.7 mb - 0.00 in0.0 mm 0.00 in0.0 mm
09:10 AM 60.4°F15.8°C 51.3°F10.7°C 72% 3.5 mph 5.6 kmh 4.6 mph7.4 kmh 30.23 in1023.7 mb - 0.00 in0.0 mm 0.00 in0.0 mm
09:00 AM 59.8°F15.4°C 50.8°F10.4°C 72% 3.5 mph N5.6 kmh N 11.5 mph18.5 kmh 30.23 in1023.7 mb - 0.00 in0.0 mm 0.00 in0.0 mm
08:50 AM 59.3°F15.2°C 49.9°F9.9°C 71% 5.8 mph NE9.3 kmh NE 9.2 mph14.8 kmh 30.23 in1023.7 mb - 0.00 in0.0 mm 0.00 in0.0 mm
08:40 AM 59.3°F15.2°C 50.3°F10.2°C 72% 3.5 mph NNE5.6 kmh NNE 5.8 mph9.3 kmh 30.23 in1023.7 mb - 0.00 in0.0 mm 0.00 in0.0 mm
08:30 AM 58.7°F14.8°C 50.1°F10.1°C 73% 3.5 mph NE5.6 kmh NE 5.8 mph9.3 kmh 30.22 in1023.4 mb - 0.00 in0.0 mm 0.00 in0.0 mm
08:20 AM 57.8°F14.3°C 50.0°F10.0°C 75% 4.6 mph N7.4 kmh N 5.8 mph9.3 kmh 30.22 in1023.4 mb - 0.00 in0.0 mm 0.00 in0.0 mm
08:10 AM 57.2°F14.0°C 50.0°F10.0°C 77% 5.8 mph NNE9.3 kmh NNE 10.4 mph16.7 kmh 30.22 in1023.4 mb - 0.00 in0.0 mm 0.00 in0.0 mm
08:00 AM 56.5°F13.6°C 49.8°F9.9°C 78% 5.8 mph NNE9.3 kmh NNE 6.9 mph11.1 kmh 30.22 in1023.4 mb - 0.00 in0.0 mm 0.00 in0.0 mm
07:50 AM 55.3°F12.9°C 49.2°F9.6°C 80% 4.6 mph N7.4 kmh N 10.4 mph16.7 kmh 30.22 in1023.4 mb - 0.00 in0.0 mm 0.00 in0.0 mm
07:40 AM 54.5°F12.5°C 48.5°F9.2°C 80% 3.5 mph N5.6 kmh N 5.8 mph9.3 kmh 30.22 in1023.4 mb - 0.00 in0.0 mm 0.00 in0.0 mm
07:30 AM 53.8°F12.1°C 48.5°F9.2°C 82% 5.8 mph N9.3 kmh N 6.9 mph11.1 kmh 30.22 in1023.4 mb - 0.00 in0.0 mm 0.00 in0.0 mm
07:20 AM 53.3°F11.8°C 48.3°F9.1°C 83% 5.8 mph N9.3 kmh N 8.1 mph13.0 kmh 30.22 in1023.4 mb - 0.00 in0.0 mm 0.00 in0.0 mm
07:10 AM 52.9°F11.6°C 48.2°F9.0°C 84% 4.6 mph NNE7.4 kmh NNE 9.2 mph14.8 kmh 30.22 in1023.4 mb - 0.00 in0.0 mm 0.00 in0.0 mm
07:00 AM 52.6°F11.4°C 48.2°F9.0°C 85% 4.6 mph NNE7.4 kmh NNE 6.9 mph11.1 kmh 30.22 in1023.4 mb - 0.00 in0.0 mm 0.00 in0.0 mm
06:50 AM 51.9°F11.1°C 47.9°F8.8°C 86% 4.6 mph N7.4 kmh N 9.2 mph14.8 kmh 30.22 in1023.4 mb - 0.00 in0.0 mm 0.00 in0.0 mm
06:40 AM 51.4°F10.8°C 47.4°F8.6°C 86% 3.5 mph NE5.6 kmh NE 5.8 mph9.3 kmh 30.22 in1023.4 mb - 0.00 in0.0 mm 0.00 in0.0 mm
06:30 AM 51.4°F10.8°C 47.4°F8.6°C 86% 4.6 mph N7.4 kmh N 8.1 mph13.0 kmh 30.21 in1023.0 mb - 0.00 in0.0 mm 0.00 in0.0 mm
06:20 AM 51.7°F10.9°C 48.0°F8.9°C 87% 6.9 mph NNE11.1 kmh NNE 11.5 mph18.5 kmh 30.21 in1023.0 mb - 0.00 in0.0 mm 0.00 in0.0 mm
06:10 AM 51.5°F10.8°C 48.1°F8.9°C 88% 4.6 mph NNE7.4 kmh NNE 8.1 mph13.0 kmh 30.21 in1023.0 mb - 0.00 in0.0 mm 0.00 in0.0 mm
06:00 AM 51.4°F10.8°C 47.9°F8.8°C 88% 3.5 mph N5.6 kmh N 6.9 mph11.1 kmh 30.21 in1023.0 mb - 0.00 in0.0 mm 0.00 in0.0 mm
05:50 AM 51.2°F10.7°C 48.1°F8.9°C 89% 1.2 mph N1.9 kmh N 5.8 mph9.3 kmh 30.21 in1023.0 mb - 0.00 in0.0 mm 0.00 in0.0 mm
05:40 AM 51.1°F10.6°C 48.0°F8.9°C 89% 2.3 mph NNW3.7 kmh NNW 4.6 mph7.4 kmh 30.20 in1022.7 mb - 0.00 in0.0 mm 0.00 in0.0 mm
05:30 AM 50.9°F10.5°C 48.1°F8.9°C 90% 2.3 mph N3.7 kmh N 4.6 mph7.4 kmh 30.20 in1022.7 mb - 0.00 in0.0 mm 0.00 in0.0 mm
05:20 AM 50.7°F10.4°C 47.9°F8.8°C 90% 1.2 mph N1.9 kmh N 6.9 mph11.1 kmh 30.20 in1022.7 mb - 0.00 in0.0 mm 0.00 in0.0 mm
05:10 AM 50.6°F10.3°C 47.5°F8.6°C 89% 4.6 mph N7.4 kmh N 6.9 mph11.1 kmh 30.20 in1022.7 mb - 0.00 in0.0 mm 0.00 in0.0 mm
05:00 AM 50.6°F10.3°C 47.7°F8.7°C 90% 2.3 mph NNW3.7 kmh NNW 4.6 mph7.4 kmh 30.19 in1022.4 mb - 0.00 in0.0 mm 0.00 in0.0 mm
04:50 AM 50.5°F10.3°C 47.4°F8.6°C 89% 3.5 mph N5.6 kmh N 4.6 mph7.4 kmh 30.19 in1022.4 mb - 0.00 in0.0 mm 0.00 in0.0 mm
04:40 AM 50.4°F10.2°C 47.3°F8.5°C 89% 3.5 mph NNW5.6 kmh NNW 3.5 mph5.6 kmh 30.19 in1022.4 mb - 0.00 in0.0 mm 0.00 in0.0 mm
04:30 AM 50.5°F10.3°C 47.4°F8.6°C 89% 2.3 mph N3.7 kmh N 4.6 mph7.4 kmh 30.18 in1022.0 mb - 0.00 in0.0 mm 0.00 in0.0 mm
04:20 AM 50.6°F10.3°C 47.2°F8.4°C 88% 3.5 mph N5.6 kmh N 5.8 mph9.3 kmh 30.18 in1022.0 mb - 0.00 in0.0 mm 0.00 in0.0 mm
04:10 AM 50.8°F10.4°C 47.4°F8.6°C 88% 4.6 mph N7.4 kmh N 6.9 mph11.1 kmh 30.18 in1022.0 mb - 0.00 in0.0 mm 0.00 in0.0 mm
04:00 AM 51.2°F10.7°C 47.5°F8.6°C 87% Calm Calm 2.3 mph3.7 kmh 30.17 in1021.7 mb - 0.00 in0.0 mm 0.00 in0.0 mm
03:50 AM 51.4°F10.8°C 47.7°F8.7°C 87% Calm Calm 3.5 mph5.6 kmh 30.17 in1021.7 mb - 0.00 in0.0 mm 0.00 in0.0 mm
03:40 AM 51.7°F10.9°C 47.6°F8.7°C 86% 1.2 mph NNW1.9 kmh NNW 3.5 mph5.6 kmh 30.17 in1021.7 mb - 0.00 in0.0 mm 0.00 in0.0 mm
03:30 AM 52.1°F11.2°C 47.8°F8.8°C 85% Calm Calm -- 30.17 in1021.7 mb - 0.00 in0.0 mm 0.00 in0.0 mm
03:20 AM 52.4°F11.3°C 48.0°F8.9°C 85% Calm Calm -- 30.17 in1021.7 mb - 0.00 in0.0 mm 0.00 in0.0 mm
03:10 AM 52.6°F11.4°C 48.2°F9.0°C 85% 3.5 mph NNW5.6 kmh NNW 5.8 mph9.3 kmh 30.17 in1021.7 mb - 0.00 in0.0 mm 0.00 in0.0 mm
03:00 AM 52.7°F11.5°C 48.3°F9.1°C 85% 1.2 mph N1.9 kmh N 5.8 mph9.3 kmh 30.17 in1021.7 mb - 0.00 in0.0 mm 0.00 in0.0 mm
02:50 AM 52.8°F11.6°C 48.1°F8.9°C 84% Calm Calm 4.6 mph7.4 kmh 30.17 in1021.7 mb - 0.00 in0.0 mm 0.00 in0.0 mm
02:40 AM 53.1°F11.7°C 48.4°F9.1°C 84% Calm Calm 2.3 mph3.7 kmh 30.17 in1021.7 mb - 0.00 in0.0 mm 0.00 in0.0 mm
02:30 AM 53.3°F11.8°C 48.3°F9.1°C 83% 1.2 mph N1.9 kmh N 5.8 mph9.3 kmh 30.17 in1021.7 mb - 0.00 in0.0 mm 0.00 in0.0 mm
02:20 AM 53.5°F11.9°C 48.2°F9.0°C 82% 2.3 mph NNW3.7 kmh NNW 6.9 mph11.1 kmh 30.17 in1021.7 mb - 0.00 in0.0 mm 0.00 in0.0 mm
02:10 AM 53.8°F12.1°C 48.1°F8.9°C 81% 4.6 mph N7.4 kmh N 5.8 mph9.3 kmh 30.16 in1021.3 mb - 0.00 in0.0 mm 0.00 in0.0 mm
02:00 AM 54.1°F12.3°C 48.1°F8.9°C 80% 3.5 mph NW5.6 kmh NW 4.6 mph7.4 kmh 30.16 in1021.3 mb - 0.00 in0.0 mm 0.00 in0.0 mm
01:50 AM 54.4°F12.4°C 48.4°F9.1°C 80% 2.3 mph NNW3.7 kmh NNW 4.6 mph7.4 kmh 30.17 in1021.7 mb - 0.00 in0.0 mm 0.00 in0.0 mm
01:40 AM 54.7°F12.6°C 48.6°F9.2°C 80% 1.2 mph NW1.9 kmh NW 5.8 mph9.3 kmh 30.16 in1021.3 mb - 0.00 in0.0 mm 0.00 in0.0 mm
01:30 AM 55.0°F12.8°C 48.6°F9.2°C 79% 1.2 mph N1.9 kmh N 2.3 mph3.7 kmh 30.16 in1021.3 mb - 0.00 in0.0 mm 0.00 in0.0 mm
01:20 AM 55.2°F12.9°C 48.8°F9.3°C 79% Calm Calm -- 30.16 in1021.3 mb - 0.00 in0.0 mm 0.00 in0.0 mm
01:10 AM 55.4°F13.0°C 49.0°F9.4°C 79% 4.6 mph N7.4 kmh N 5.8 mph9.3 kmh 30.16 in1021.3 mb - 0.00 in0.0 mm 0.00 in0.0 mm
01:00 AM 55.7°F13.2°C 48.9°F9.4°C 78% Calm Calm 1.2 mph1.9 kmh 30.16 in1021.3 mb - 0.00 in0.0 mm 0.00 in0.0 mm
12:50 AM 56.0°F13.3°C 49.2°F9.6°C 78% Calm Calm 4.6 mph7.4 kmh 30.16 in1021.3 mb - 0.00 in0.0 mm 0.00 in0.0 mm
12:40 AM 56.2°F13.4°C 49.1°F9.5°C 77% Calm Calm 5.8 mph9.3 kmh 30.16 in1021.3 mb - 0.00 in0.0 mm 0.00 in0.0 mm
12:30 AM 56.5°F13.6°C 49.0°F9.4°C 76% 3.5 mph NNW5.6 kmh NNW 4.6 mph7.4 kmh 30.16 in1021.3 mb - 0.00 in0.0 mm 0.00 in0.0 mm
12:20 AM 56.7°F13.7°C 48.9°F9.4°C 75% 1.2 mph N1.9 kmh N 1.2 mph1.9 kmh 30.16 in1021.3 mb - 0.00 in0.0 mm 0.00 in0.0 mm
12:10 AM 56.9°F13.8°C 48.7°F9.3°C 74% 1.2 mph NNW1.9 kmh NNW 5.8 mph9.3 kmh 30.16 in1021.3 mb - 0.00 in0.0 mm 0.00 in0.0 mm
12:00 AM 57.3°F14.1°C 49.1°F9.5°C 74% Calm Calm 1.2 mph1.9 kmh 30.16 in1021.3 mb - 0.00 in0.0 mm 0.00 in0.0 mm